Fountain, Illinois
Current Conditions -  °F | °C
As of 11:53 PM on Saturday 22 Nov 2014 (Local Time) from KCPS Reporting Station
Overcast Overcast  
Wind Chill: 55°   Ceiling: 10000
Heat Index: 55°   Visibility: 10mi
Dew Point: 46°   Wind: 5mph
Humidity: 72%   Direction: 170°S
Pressure: 29.87"   Gusts: NA
Location:  38.2838°N, 90.3044°W
Report Text: KCPS 230553Z AUTO 17004KT 10SM OVC100 13/08 A2987 RMK AO2 SLP113 60006 T01280078 10133 20117 401610056 58017 TSNO
Loading
Personal Weather Stations






























Interactive Weather Map New forecast layout! Learn more

10-Day Weather Forecast

Advertisements
Track Severe Weather on mobile